Time;durP1;ratioP1;P1;durP2;ratioP2;P2;SDS_P1;SDS_P2;PMS_P1;PMS_P2;Temp;Humidity;BMP_temperature;BMP_pressure;BME280_temperature;BME280_humidity;BME280_pressure;Samples;Min_cycle;Max_cycle;Signal;HPM_P1;HPM_P2
2021/01/13 00:01:41;;;;;;;2.87;2.53;;;;;;;;;;5031363;28;20468;-75
2021/01/13 00:04:09;;;;;;;3.93;2.50;;;;;;;;;;5033562;28;20457;-73
2021/01/13 00:06:36;;;;;;;7.37;3.10;;;;;;;;;;5022613;28;20473;-73
2021/01/13 00:09:02;;;;;;;7.37;3.57;;;;;;;;;;5032900;28;20448;-71
2021/01/13 00:11:30;;;;;;;4.60;3.17;;;;;;;;;;5028259;28;20832;-72
2021/01/13 00:13:56;;;;;;;4.13;3.17;;;;;;;;;;5031938;28;20469;-71
2021/01/13 00:16:23;;;;;;;5.73;2.83;;;;;;;;;;5030487;28;20464;-72
2021/01/13 00:18:50;;;;;;;7.37;3.53;;;;;;;;;;5032251;28;20518;-72
2021/01/13 00:21:17;;;;;;;11.43;4.00;;;;;;;;;;5031310;28;20468;-71
2021/01/13 00:23:44;;;;;;;6.87;3.40;;;;;;;;;;5032238;28;20449;-73
2021/01/13 00:26:10;;;;;;;6.00;2.80;;;;;;;;;;5031421;28;20871;-71
2021/01/13 00:28:38;;;;;;;7.57;2.93;;;;;;;;;;5030610;28;20481;-72
2021/01/13 00:31:05;;;;;;;5.07;2.90;;;;;;;;;;5027816;28;20457;-71
2021/01/13 00:33:31;;;;;;;9.83;3.30;;;;;;;;;;5028248;28;20850;-72
2021/01/13 00:35:58;;;;;;;5.07;3.07;;;;;;;;;;5031680;28;20457;-75
2021/01/13 00:38:25;;;;;;;6.17;3.07;;;;;;;;;;5031079;28;20485;-72
2021/01/13 00:40:52;;;;;;;6.17;3.00;;;;;;;;;;5032173;28;20463;-72
2021/01/13 00:43:18;;;;;;;6.17;3.00;;;;;;;;;;5031820;28;20449;-72
2021/01/13 00:45:46;;;;;;;6.47;2.70;;;;;;;;;;5030461;28;20499;-72
2021/01/13 00:48:12;;;;;;;4.23;3.40;;;;;;;;;;5030861;28;20484;-72
2021/01/13 00:50:39;;;;;;;4.00;2.57;;;;;;;;;;5032145;28;20475;-71
2021/01/13 00:53:07;;;;;;;3.20;2.87;;;;;;;;;;5032403;28;20459;-71
2021/01/13 00:55:33;;;;;;;3.70;3.40;;;;;;;;;;5030879;28;20461;-71
2021/01/13 00:58:00;;;;;;;6.00;4.20;;;;;;;;;;5031850;28;20546;-71
2021/01/13 01:00:27;;;;;;;6.97;4.03;;;;;;;;;;5030419;28;20460;-71
2021/01/13 01:02:54;;;;;;;7.73;4.07;;;;;;;;;;5031380;28;20457;-70
2021/01/13 01:05:21;;;;;;;7.87;4.50;;;;;;;;;;5030834;28;20828;-71
2021/01/13 01:07:48;;;;;;;9.90;5.57;;;;;;;;;;5030915;28;20488;-71
2021/01/13 01:10:18;;;;;;;5.10;4.30;;;;;;;;;;5030887;28;20913;-71
2021/01/13 01:12:45;;;;;;;7.27;4.70;;;;;;;;;;5031829;28;20472;-71
2021/01/13 01:15:12;;;;;;;5.87;4.10;;;;;;;;;;5032821;28;20459;-72
2021/01/13 01:17:39;;;;;;;5.13;3.10;;;;;;;;;;5030458;28;20488;-72
2021/01/13 01:20:07;;;;;;;12.20;4.37;;;;;;;;;;5030216;28;20476;-72
2021/01/13 01:22:34;;;;;;;4.50;3.37;;;;;;;;;;5030687;28;20832;-72
2021/01/13 01:25:00;;;;;;;6.87;3.47;;;;;;;;;;5033494;28;20870;-72
2021/01/13 01:27:27;;;;;;;5.50;2.80;;;;;;;;;;5034330;28;20979;-72
2021/01/13 01:29:54;;;;;;;4.80;2.60;;;;;;;;;;5031888;28;20983;-71
2021/01/13 01:32:20;;;;;;;6.30;2.80;;;;;;;;;;5031834;28;20452;-71
2021/01/13 01:34:47;;;;;;;7.73;2.73;;;;;;;;;;5030106;28;20833;-71
2021/01/13 01:37:15;;;;;;;7.27;3.00;;;;;;;;;;5031619;28;20984;-71
2021/01/13 01:39:41;;;;;;;4.33;2.40;;;;;;;;;;5030763;28;20491;-71
2021/01/13 01:42:11;;;;;;;5.70;3.90;;;;;;;;;;5030733;28;20467;-71
2021/01/13 01:44:38;;;;;;;6.00;2.77;;;;;;;;;;5031461;28;20451;-70
2021/01/13 01:47:06;;;;;;;6.57;2.93;;;;;;;;;;5027931;28;20480;-71
2021/01/13 01:49:33;;;;;;;5.17;2.93;;;;;;;;;;5030810;28;20456;-70
2021/01/13 01:52:03;;;;;;;8.30;3.00;;;;;;;;;;5030666;28;20939;-71
2021/01/13 01:54:34;;;;;;;4.90;2.80;;;;;;;;;;5031340;28;20856;-73
2021/01/13 01:57:03;;;;;;;8.30;2.80;;;;;;;;;;5030059;28;20484;-71
2021/01/13 01:59:35;;;;;;;5.00;2.80;;;;;;;;;;5030906;28;20832;-71
2021/01/13 02:02:04;;;;;;;5.30;3.00;;;;;;;;;;5031476;28;20996;-71
2021/01/13 02:04:31;;;;;;;4.30;3.10;;;;;;;;;;5036492;28;20932;-71
2021/01/13 02:07:25;;;;;;;6.57;2.77;;;;;;;;;;5033722;28;21221;-72
2021/01/13 02:09:53;;;;;;;5.10;2.70;;;;;;;;;;5033597;28;21006;-72
2021/01/13 02:12:25;;;;;;;2.77;2.40;;;;;;;;;;5035161;28;20521;-71
2021/01/13 02:14:52;;;;;;;4.00;2.87;;;;;;;;;;5039547;28;20453;-71
2021/01/13 02:17:22;;;;;;;5.17;2.60;;;;;;;;;;5043722;28;20496;-71
2021/01/13 02:20:06;;;;;;;4.70;2.67;;;;;;;;;;5038360;28;20452;-71
2021/01/13 02:22:37;;;;;;;6.53;2.90;;;;;;;;;;5025629;28;20447;-70
2021/01/13 02:25:37;;;;;;;4.13;2.47;;;;;;;;;;5034219;28;20448;-70
2021/01/13 02:28:05;;;;;;;7.03;3.30;;;;;;;;;;5034203;28;20858;-70
2021/01/13 02:30:34;;;;;;;4.80;2.40;;;;;;;;;;5034307;28;20448;-70
2021/01/13 02:33:03;;;;;;;7.33;3.37;;;;;;;;;;5032410;28;20457;-71
2021/01/13 02:35:30;;;;;;;7.13;3.03;;;;;;;;;;5034526;28;20448;-72
2021/01/13 02:38:04;;;;;;;5.60;3.03;;;;;;;;;;5033442;28;20500;-72
2021/01/13 02:40:31;;;;;;;5.07;3.23;;;;;;;;;;5039171;28;20474;-72
2021/01/13 02:43:00;;;;;;;10.50;2.93;;;;;;;;;;5054768;28;20448;-72
2021/01/13 02:45:28;;;;;;;7.70;3.23;;;;;;;;;;5042296;28;20448;-71
2021/01/13 02:48:09;;;;;;;7.83;3.03;;;;;;;;;;5034939;28;20465;-72
2021/01/13 02:50:36;;;;;;;6.77;3.00;;;;;;;;;;5034520;28;20492;-72
2021/01/13 02:53:12;;;;;;;9.23;3.17;;;;;;;;;;5032239;28;20819;-72
2021/01/13 02:55:41;;;;;;;7.93;3.40;;;;;;;;;;5030172;28;20456;-72
2021/01/13 02:58:09;;;;;;;6.43;3.33;;;;;;;;;;5034610;28;20488;-72
2021/01/13 03:00:37;;;;;;;5.00;3.00;;;;;;;;;;5035978;28;20464;-71
2021/01/13 03:03:05;;;;;;;5.57;3.10;;;;;;;;;;5033678;28;20480;-71
2021/01/13 03:05:32;;;;;;;8.63;3.53;;;;;;;;;;5035143;28;20463;-72
2021/01/13 03:07:59;;;;;;;5.90;3.03;;;;;;;;;;5032913;28;20476;-72
2021/01/13 03:10:27;;;;;;;5.80;2.93;;;;;;;;;;5032976;28;20469;-71
2021/01/13 03:12:59;;;;;;;6.97;2.57;;;;;;;;;;5034073;28;20449;-71
2021/01/13 03:15:26;;;;;;;6.00;3.00;;;;;;;;;;5032984;28;20469;-72
2021/01/13 03:18:04;;;;;;;6.23;3.40;;;;;;;;;;5033351;28;20995;-72
2021/01/13 03:20:33;;;;;;;4.73;3.07;;;;;;;;;;5032860;28;20464;-71
2021/01/13 03:23:05;;;;;;;6.00;3.77;;;;;;;;;;5033603;28;20453;-72
2021/01/13 03:25:36;;;;;;;8.93;3.67;;;;;;;;;;5031896;28;20859;-72
2021/01/13 03:28:03;;;;;;;6.70;3.40;;;;;;;;;;5033359;28;20849;-72
2021/01/13 03:30:30;;;;;;;10.03;3.90;;;;;;;;;;5032732;28;20460;-72
2021/01/13 03:33:05;;;;;;;6.83;3.20;;;;;;;;;;5033240;28;20515;-72
2021/01/13 03:35:37;;;;;;;8.57;3.97;;;;;;;;;;5032770;28;20471;-72
2021/01/13 03:38:04;;;;;;;4.90;3.13;;;;;;;;;;5031735;28;20500;-72
2021/01/13 03:40:33;;;;;;;8.60;3.40;;;;;;;;;;5032449;28;20472;-72
2021/01/13 03:43:01;;;;;;;9.97;3.80;;;;;;;;;;5033164;28;20449;-72
2021/01/13 03:45:35;;;;;;;6.10;3.20;;;;;;;;;;5032789;28;20472;-72
2021/01/13 03:48:09;;;;;;;9.33;3.23;;;;;;;;;;5032402;28;20480;-72
2021/01/13 03:50:37;;;;;;;6.90;3.23;;;;;;;;;;5032475;28;20464;-71
2021/01/13 03:53:05;;;;;;;9.23;3.53;;;;;;;;;;5032984;28;20575;-72
2021/01/13 03:55:33;;;;;;;10.50;4.30;;;;;;;;;;5032198;28;20465;-71
2021/01/13 03:58:22;;;;;;;5.90;3.90;;;;;;;;;;5032360;28;20495;-71
2021/01/13 04:00:57;;;;;;;5.60;3.37;;;;;;;;;;5029846;28;20473;-70
2021/01/13 04:03:28;;;;;;;6.67;3.27;;;;;;;;;;5031741;28;21017;-71
2021/01/13 04:06:04;;;;;;;6.83;4.00;;;;;;;;;;5032767;28;20453;-71
2021/01/13 04:08:34;;;;;;;5.80;3.50;;;;;;;;;;5032020;28;20487;-72
2021/01/13 04:11:01;;;;;;;9.13;4.00;;;;;;;;;;5030135;28;20483;-72
2021/01/13 04:13:35;;;;;;;8.13;4.07;;;;;;;;;;5032276;28;20468;-72
2021/01/13 04:16:02;;;;;;;6.10;3.77;;;;;;;;;;5032701;28;20509;-72
2021/01/13 04:18:30;;;;;;;8.47;4.70;;;;;;;;;;5030445;28;20501;-72
2021/01/13 04:20:57;;;;;;;6.70;4.60;;;;;;;;;;5032390;28;20456;-71
2021/01/13 04:23:24;;;;;;;8.47;4.57;;;;;;;;;;5031165;28;20449;-72
2021/01/13 04:25:51;;;;;;;9.23;5.23;;;;;;;;;;5032161;28;20453;-72
2021/01/13 04:28:18;;;;;;;5.43;4.57;;;;;;;;;;5031467;28;20481;-72
2021/01/13 04:30:45;;;;;;;7.73;4.60;;;;;;;;;;5032479;28;20958;-72
2021/01/13 04:33:12;;;;;;;6.73;4.07;;;;;;;;;;5031411;28;20456;-72
2021/01/13 04:35:40;;;;;;;6.47;4.27;;;;;;;;;;5032033;28;20452;-73
2021/01/13 04:38:10;;;;;;;5.43;4.53;;;;;;;;;;5030077;28;20999;-73
2021/01/13 04:40:37;;;;;;;5.83;4.00;;;;;;;;;;5031587;28;20468;-73
2021/01/13 04:43:04;;;;;;;5.83;3.43;;;;;;;;;;5032456;28;20464;-73
2021/01/13 04:45:39;;;;;;;5.90;3.73;;;;;;;;;;5031474;28;20537;-73
2021/01/13 04:48:06;;;;;;;3.63;3.33;;;;;;;;;;5012193;28;20465;-72
2021/01/13 04:50:34;;;;;;;4.13;3.20;;;;;;;;;;5027560;28;20522;-72
2021/01/13 04:53:07;;;;;;;5.17;3.60;;;;;;;;;;5030882;28;20471;-74
2021/01/13 04:55:43;;;;;;;4.73;4.10;;;;;;;;;;5031098;28;20452;-73
2021/01/13 04:58:37;;;;;;;4.73;4.17;;;;;;;;;;5029190;28;20863;-73
2021/01/13 05:01:27;;;;;;;6.23;4.93;;;;;;;;;;5031169;28;20444;-73
2021/01/13 05:04:01;;;;;;;5.47;4.00;;;;;;;;;;5007059;28;20494;-73
2021/01/13 05:06:47;;;;;;;7.60;5.30;;;;;;;;;;5031267;28;20464;-73
2021/01/13 05:09:16;;;;;;;9.90;6.33;;;;;;;;;;5031262;28;20444;-72
2021/01/13 05:11:43;;;;;;;6.93;4.80;;;;;;;;;;5031262;28;20468;-73
2021/01/13 05:14:10;;;;;;;6.93;5.33;;;;;;;;;;5031826;28;20452;-73
2021/01/13 05:16:41;;;;;;;8.47;5.10;;;;;;;;;;5029764;28;20465;-73
2021/01/13 05:19:18;;;;;;;6.27;4.70;;;;;;;;;;5030299;28;20546;-73
2021/01/13 05:21:45;;;;;;;7.10;5.70;;;;;;;;;;5031419;28;20456;-74
2021/01/13 05:24:19;;;;;;;8.93;5.60;;;;;;;;;;5030960;28;20460;-73
2021/01/13 05:26:57;;;;;;;9.63;5.27;;;;;;;;;;5030868;28;21065;-72
2021/01/13 05:29:33;;;;;;;11.80;5.30;;;;;;;;;;5031359;28;20455;-73
2021/01/13 05:32:01;;;;;;;6.50;4.73;;;;;;;;;;5030908;28;20464;-73
2021/01/13 05:34:32;;;;;;;8.80;4.53;;;;;;;;;;5029465;28;20477;-73
2021/01/13 05:37:15;;;;;;;16.13;6.03;;;;;;;;;;5031960;28;20472;-73
2021/01/13 05:39:42;;;;;;;11.87;5.53;;;;;;;;;;5034603;28;21188;-73
2021/01/13 05:42:11;;;;;;;9.67;5.00;;;;;;;;;;5045510;28;20468;-72
2021/01/13 05:44:38;;;;;;;6.87;4.93;;;;;;;;;;5045439;28;20453;-72
2021/01/13 05:47:05;;;;;;;10.50;5.20;;;;;;;;;;5035172;28;20885;-72
2021/01/13 05:49:32;;;;;;;8.90;5.23;;;;;;;;;;5032917;28;20956;-73
2021/01/13 05:52:05;;;;;;;8.90;5.80;;;;;;;;;;5035417;28;20444;-72
2021/01/13 05:54:33;;;;;;;7.23;5.43;;;;;;;;;;5029102;28;20541;-73
2021/01/13 05:57:00;;;;;;;6.63;4.83;;;;;;;;;;5027379;28;20817;-72
2021/01/13 05:59:30;;;;;;;5.40;4.77;;;;;;;;;;5033498;28;20468;-72
2021/01/13 06:01:57;;;;;;;8.93;5.43;;;;;;;;;;5034995;28;20459;-72
2021/01/13 06:04:24;;;;;;;8.63;6.00;;;;;;;;;;5033581;28;20513;-72
2021/01/13 06:06:57;;;;;;;8.43;5.47;;;;;;;;;;5035139;28;20464;-72
2021/01/13 06:09:24;;;;;;;8.93;6.37;;;;;;;;;;5033683;28;20828;-74
2021/01/13 06:11:52;;;;;;;6.80;5.83;;;;;;;;;;5034210;28;20472;-72
2021/01/13 06:14:23;;;;;;;10.90;5.57;;;;;;;;;;5035655;28;20551;-72
2021/01/13 06:16:52;;;;;;;11.67;6.27;;;;;;;;;;5034838;28;20488;-71
2021/01/13 06:19:19;;;;;;;7.57;5.63;;;;;;;;;;5031825;28;20536;-72
2021/01/13 06:21:46;;;;;;;7.50;6.67;;;;;;;;;;5034889;28;20448;-71
2021/01/13 06:24:13;;;;;;;7.63;6.20;;;;;;;;;;5027781;28;20469;-71
2021/01/13 06:26:46;;;;;;;8.30;6.20;;;;;;;;;;5028611;28;20464;-71
2021/01/13 06:29:31;;;;;;;11.90;5.80;;;;;;;;;;5033726;28;20494;-71
2021/01/13 06:31:59;;;;;;;6.43;5.67;;;;;;;;;;5034902;28;20936;-71
2021/01/13 06:34:29;;;;;;;8.37;5.87;;;;;;;;;;5033467;28;20468;-71
2021/01/13 06:37:10;;;;;;;8.70;6.00;;;;;;;;;;5034953;28;20464;-71
2021/01/13 06:39:39;;;;;;;10.40;5.60;;;;;;;;;;5033585;28;20959;-72
2021/01/13 06:42:05;;;;;;;8.00;5.83;;;;;;;;;;5034135;28;20460;-72
2021/01/13 06:44:42;;;;;;;8.20;5.17;;;;;;;;;;5034766;28;20979;-72
2021/01/13 06:47:10;;;;;;;7.10;5.37;;;;;;;;;;5033837;28;20487;-72
2021/01/13 06:49:36;;;;;;;11.07;6.20;;;;;;;;;;5033105;28;20465;-71
2021/01/13 06:52:03;;;;;;;9.93;5.90;;;;;;;;;;5033966;28;20468;-72
2021/01/13 06:54:30;;;;;;;7.33;5.27;;;;;;;;;;5035921;28;20499;-72
2021/01/13 06:56:58;;;;;;;7.97;6.07;;;;;;;;;;5033818;28;20487;-72
2021/01/13 06:59:25;;;;;;;6.50;5.20;;;;;;;;;;5036013;28;20498;-72
2021/01/13 07:01:53;;;;;;;8.97;5.43;;;;;;;;;;5034604;28;20468;-71
2021/01/13 07:04:20;;;;;;;7.90;5.43;;;;;;;;;;5034544;28;20960;-73
2021/01/13 07:07:05;;;;;;;10.10;5.50;;;;;;;;;;5038974;28;20510;-72
2021/01/13 07:09:35;;;;;;;7.53;4.80;;;;;;;;;;5047352;28;20468;-73
2021/01/13 07:12:06;;;;;;;7.00;5.47;;;;;;;;;;5047001;28;20465;-73
2021/01/13 07:14:34;;;;;;;4.73;3.03;;;;;;;;;;5045303;28;20465;-73
2021/01/13 07:17:01;;;;;;;4.67;2.80;;;;;;;;;;5034348;28;20557;-73
2021/01/13 07:19:29;;;;;;;4.43;2.33;;;;;;;;;;5049371;28;20494;-73
2021/01/13 07:21:58;;;;;;;4.93;2.53;;;;;;;;;;5050248;28;20453;-73
2021/01/13 07:24:28;;;;;;;5.57;2.33;;;;;;;;;;5048251;28;20453;-73
2021/01/13 07:26:56;;;;;;;3.03;2.20;;;;;;;;;;5046269;28;20498;-74
2021/01/13 07:29:25;;;;;;;4.77;1.80;;;;;;;;;;5035528;28;20449;-72
2021/01/13 07:31:52;;;;;;;5.10;2.47;;;;;;;;;;5033609;28;20460;-74
2021/01/13 07:34:26;;;;;;;6.93;2.53;;;;;;;;;;5033565;28;20452;-72
2021/01/13 07:36:58;;;;;;;6.17;3.07;;;;;;;;;;5033091;28;20467;-74
2021/01/13 07:39:27;;;;;;;2.80;2.13;;;;;;;;;;5033170;28;20485;-74
2021/01/13 07:42:11;;;;;;;3.10;1.83;;;;;;;;;;5033340;28;20510;-74
2021/01/13 07:44:42;;;;;;;3.20;1.80;;;;;;;;;;5033375;28;20452;-73
2021/01/13 07:47:26;;;;;;;3.67;1.40;;;;;;;;;;5032404;28;21178;-74
2021/01/13 07:50:04;;;;;;;3.57;1.60;;;;;;;;;;5032912;28;20453;-73
2021/01/13 07:52:36;;;;;;;2.73;1.40;;;;;;;;;;5027494;28;20548;-72
2021/01/13 07:55:04;;;;;;;2.10;1.40;;;;;;;;;;5024688;28;20510;-73
2021/01/13 07:57:39;;;;;;;3.77;1.50;;;;;;;;;;5032320;28;20468;-74
2021/01/13 08:00:08;;;;;;;2.00;1.10;;;;;;;;;;5027644;28;20456;-74
2021/01/13 08:02:59;;;;;;;2.53;1.30;;;;;;;;;;5031763;28;20452;-74
2021/01/13 08:05:44;;;;;;;2.17;1.40;;;;;;;;;;5028933;28;20488;-74
2021/01/13 08:08:12;;;;;;;2.60;1.00;;;;;;;;;;5031963;28;20514;-74
2021/01/13 08:10:39;;;;;;;3.87;1.40;;;;;;;;;;5030484;28;20936;-74
2021/01/13 08:13:21;;;;;;;2.90;1.77;;;;;;;;;;5031906;28;20831;-74
2021/01/13 08:16:07;;;;;;;2.87;1.30;;;;;;;;;;5032767;28;20530;-73
2021/01/13 08:18:57;;;;;;;2.83;1.40;;;;;;;;;;5027767;28;20491;-72
2021/01/13 08:21:32;;;;;;;7.67;1.70;;;;;;;;;;5031954;28;20911;-71
2021/01/13 08:24:03;;;;;;;3.00;1.30;;;;;;;;;;5023506;28;20471;-72
2021/01/13 08:26:30;;;;;;;2.67;1.33;;;;;;;;;;5031976;28;20444;-72
2021/01/13 08:28:59;;;;;;;2.87;1.67;;;;;;;;;;5032443;28;20456;-72
2021/01/13 08:31:26;;;;;;;4.83;2.70;;;;;;;;;;5032292;28;20884;-70
2021/01/13 08:34:03;;;;;;;8.63;3.17;;;;;;;;;;5032408;28;20993;-72
2021/01/13 08:36:30;;;;;;;4.40;3.33;;;;;;;;;;5031543;28;20513;-74
2021/01/13 08:39:06;;;;;;;5.53;3.17;;;;;;;;;;5031721;28;20480;-73
2021/01/13 08:41:33;;;;;;;4.70;3.00;;;;;;;;;;5031703;28;20436;-74
2021/01/13 08:44:04;;;;;;;4.03;3.00;;;;;;;;;;5032302;28;20449;-71
2021/01/13 08:46:38;;;;;;;3.30;2.60;;;;;;;;;;5033459;28;20465;-72
2021/01/13 08:49:05;;;;;;;3.57;3.20;;;;;;;;;;5033652;28;20978;-73
2021/01/13 08:51:32;;;;;;;5.63;3.53;;;;;;;;;;5032862;28;20829;-73
2021/01/13 08:54:14;;;;;;;6.60;3.30;;;;;;;;;;5033834;28;20451;-73
2021/01/13 08:56:57;;;;;;;6.20;3.33;;;;;;;;;;5033492;28;20465;-74
2021/01/13 08:59:35;;;;;;;6.77;2.70;;;;;;;;;;5032738;28;20472;-72
2021/01/13 09:02:07;;;;;;;6.23;3.40;;;;;;;;;;5033916;28;21014;-74
2021/01/13 09:04:54;;;;;;;6.17;3.00;;;;;;;;;;5034282;28;20891;-74
2021/01/13 09:07:22;;;;;;;3.60;3.30;;;;;;;;;;5037427;28;20487;-70
2021/01/13 09:10:03;;;;;;;4.80;3.80;;;;;;;;;;5042316;28;20483;-70
2021/01/13 09:12:32;;;;;;;6.20;2.90;;;;;;;;;;5034849;28;20460;-70
2021/01/13 09:15:16;;;;;;;8.13;3.43;;;;;;;;;;5048612;28;20449;-70
2021/01/13 09:17:44;;;;;;;8.07;3.67;;;;;;;;;;5052182;28;20536;-70
2021/01/13 09:20:24;;;;;;;5.60;3.67;;;;;;;;;;5052103;28;20505;-70
2021/01/13 09:22:52;;;;;;;5.93;3.80;;;;;;;;;;5053727;28;20463;-71
2021/01/13 09:25:21;;;;;;;5.53;3.80;;;;;;;;;;5053450;28;20474;-70
2021/01/13 09:27:50;;;;;;;6.63;3.77;;;;;;;;;;5054329;28;20499;-70
2021/01/13 09:30:33;;;;;;;6.20;3.20;;;;;;;;;;5054488;28;20453;-70
2021/01/13 09:33:01;;;;;;;5.00;3.10;;;;;;;;;;5052148;28;20854;-70
2021/01/13 09:35:29;;;;;;;7.57;3.60;;;;;;;;;;5053875;28;20429;-70
2021/01/13 09:37:56;;;;;;;5.83;3.30;;;;;;;;;;5047191;28;20499;-70
2021/01/13 09:40:23;;;;;;;5.60;3.10;;;;;;;;;;5051839;28;20447;-71
2021/01/13 09:42:57;;;;;;;5.77;3.30;;;;;;;;;;5054366;28;20445;-69
2021/01/13 09:45:24;;;;;;;5.57;3.37;;;;;;;;;;5053121;28;20505;-71
2021/01/13 09:47:51;;;;;;;4.67;3.67;;;;;;;;;;5055390;28;20455;-71
2021/01/13 09:50:21;;;;;;;9.33;4.17;;;;;;;;;;5054552;28;20447;-70
2021/01/13 09:52:48;;;;;;;10.07;4.53;;;;;;;;;;5043781;28;20479;-69
2021/01/13 09:55:16;;;;;;;7.60;3.83;;;;;;;;;;5032804;28;20468;-69
2021/01/13 09:57:43;;;;;;;8.87;3.70;;;;;;;;;;5032530;28;20465;-69
2021/01/13 10:00:11;;;;;;;10.10;4.30;;;;;;;;;;5032058;28;20586;-69
2021/01/13 10:02:38;;;;;;;8.57;3.83;;;;;;;;;;5032249;28;20445;-69
2021/01/13 10:05:05;;;;;;;6.90;3.70;;;;;;;;;;5031784;28;20448;-70
2021/01/13 10:07:33;;;;;;;9.40;4.10;;;;;;;;;;5031582;28;20464;-69
2021/01/13 10:10:00;;;;;;;6.47;3.33;;;;;;;;;;5031792;28;20465;-69
2021/01/13 10:12:35;;;;;;;5.50;3.60;;;;;;;;;;5032065;28;20449;-65
2021/01/13 10:15:05;;;;;;;7.33;4.03;;;;;;;;;;5031384;28;20444;-65
2021/01/13 10:17:34;;;;;;;8.93;4.13;;;;;;;;;;5029560;28;20488;-65
2021/01/13 10:20:10;;;;;;;10.63;4.17;;;;;;;;;;5031010;28;20827;-65
2021/01/13 10:22:38;;;;;;;9.43;4.00;;;;;;;;;;5032205;28;20440;-73
2021/01/13 10:25:06;;;;;;;6.97;3.53;;;;;;;;;;5033932;28;20444;-73
2021/01/13 10:27:33;;;;;;;9.73;7.10;;;;;;;;;;5035034;28;20472;-73
2021/01/13 10:29:59;;;;;;;9.50;4.77;;;;;;;;;;5035636;28;20935;-73
2021/01/13 10:32:26;;;;;;;7.83;3.80;;;;;;;;;;5045132;28;20448;-73
2021/01/13 10:34:54;;;;;;;9.10;4.40;;;;;;;;;;5050188;28;20457;-73
2021/01/13 10:37:21;;;;;;;9.60;4.40;;;;;;;;;;5050062;28;20818;-73
2021/01/13 10:39:48;;;;;;;8.07;4.50;;;;;;;;;;5050351;28;20563;-73
2021/01/13 10:42:15;;;;;;;9.97;4.70;;;;;;;;;;5050925;28;20453;-73
2021/01/13 10:44:42;;;;;;;6.93;4.27;;;;;;;;;;5048629;28;20452;-73
2021/01/13 10:47:10;;;;;;;11.10;4.40;;;;;;;;;;5039943;28;20472;-73
2021/01/13 10:49:37;;;;;;;8.10;4.13;;;;;;;;;;5043529;28;20445;-73
2021/01/13 10:52:06;;;;;;;8.20;5.07;;;;;;;;;;5049540;28;20452;-73
2021/01/13 10:54:33;;;;;;;6.93;4.30;;;;;;;;;;5049506;28;20461;-72
2021/01/13 10:57:01;;;;;;;9.13;4.13;;;;;;;;;;5041257;28;20877;-73
2021/01/13 10:59:29;;;;;;;7.73;5.33;;;;;;;;;;5034463;28;20486;-73
2021/01/13 11:01:58;;;;;;;8.43;4.37;;;;;;;;;;5034216;28;20963;-73
2021/01/13 11:04:26;;;;;;;9.20;4.63;;;;;;;;;;5034012;28;20854;-73
2021/01/13 11:06:57;;;;;;;5.67;4.27;;;;;;;;;;5033869;28;20480;-73
2021/01/13 11:09:25;;;;;;;8.90;4.30;;;;;;;;;;5034134;28;20449;-73
2021/01/13 11:11:52;;;;;;;7.43;3.57;;;;;;;;;;5033800;28;20792;-73
2021/01/13 11:14:31;;;;;;;9.30;4.20;;;;;;;;;;5034286;28;20444;-73
2021/01/13 11:17:02;;;;;;;10.40;4.50;;;;;;;;;;5033674;28;20483;-73
2021/01/13 11:19:29;;;;;;;8.60;4.53;;;;;;;;;;5026204;28;20481;-73
2021/01/13 11:21:56;;;;;;;10.20;3.80;;;;;;;;;;5033280;28;20464;-73
2021/01/13 11:24:34;;;;;;;11.30;4.43;;;;;;;;;;5033449;28;20457;-73
2021/01/13 11:27:02;;;;;;;6.40;3.93;;;;;;;;;;5033425;28;20465;-73
2021/01/13 11:29:29;;;;;;;8.70;4.00;;;;;;;;;;5033009;28;20846;-73
2021/01/13 11:31:56;;;;;;;12.77;5.43;;;;;;;;;;5033549;28;20453;-73
2021/01/13 11:34:23;;;;;;;10.33;5.13;;;;;;;;;;5032233;28;20457;-73
2021/01/13 11:37:01;;;;;;;7.67;4.30;;;;;;;;;;5032993;28;20531;-73
2021/01/13 11:39:30;;;;;;;8.63;4.20;;;;;;;;;;5033248;28;20488;-73
2021/01/13 11:42:05;;;;;;;10.50;4.10;;;;;;;;;;5033218;28;20832;-73
2021/01/13 11:44:39;;;;;;;11.17;4.63;;;;;;;;;;5032876;28;20487;-73
2021/01/13 11:47:19;;;;;;;9.33;4.20;;;;;;;;;;5033285;28;20481;-73
2021/01/13 11:49:52;;;;;;;8.43;4.20;;;;;;;;;;5032633;28;20453;-73
2021/01/13 11:52:20;;;;;;;8.73;4.13;;;;;;;;;;5033135;28;20449;-73
2021/01/13 11:54:50;;;;;;;9.40;4.23;;;;;;;;;;5032843;28;20955;-73
2021/01/13 11:57:22;;;;;;;8.20;3.70;;;;;;;;;;5032804;28;20469;-73
2021/01/13 11:59:50;;;;;;;7.33;3.73;;;;;;;;;;5033022;28;20488;-73
2021/01/13 12:02:19;;;;;;;7.17;3.83;;;;;;;;;;5033118;28;20453;-73
2021/01/13 12:04:46;;;;;;;9.50;4.67;;;;;;;;;;5032789;28;20453;-72
2021/01/13 12:07:13;;;;;;;11.60;3.87;;;;;;;;;;5032710;28;20508;-72
2021/01/13 12:09:39;;;;;;;8.40;4.17;;;;;;;;;;5032622;28;20452;-73
2021/01/13 12:12:07;;;;;;;7.87;4.37;;;;;;;;;;5032588;28;20463;-73
2021/01/13 12:14:43;;;;;;;10.27;4.97;;;;;;;;;;5032930;28;20440;-73
2021/01/13 12:17:10;;;;;;;10.33;3.73;;;;;;;;;;5032812;28;20492;-73
2021/01/13 12:19:38;;;;;;;9.20;4.70;;;;;;;;;;5031975;28;20507;-73
2021/01/13 12:22:05;;;;;;;9.93;4.40;;;;;;;;;;5032682;28;20948;-73
2021/01/13 12:24:38;;;;;;;12.03;5.00;;;;;;;;;;5032470;28;20933;-73
2021/01/13 12:27:20;;;;;;;11.97;4.90;;;;;;;;;;5032800;28;20465;-73
2021/01/13 12:29:48;;;;;;;6.70;4.33;;;;;;;;;;5032726;28;20944;-73
2021/01/13 12:32:14;;;;;;;8.00;4.23;;;;;;;;;;5036176;28;20821;-72
2021/01/13 12:34:42;;;;;;;8.77;4.50;;;;;;;;;;5040465;28;20457;-73
2021/01/13 12:37:08;;;;;;;10.80;3.53;;;;;;;;;;5037298;28;20533;-72
2021/01/13 12:39:36;;;;;;;11.90;4.70;;;;;;;;;;5028705;28;20484;-72
2021/01/13 12:42:04;;;;;;;13.40;5.10;;;;;;;;;;5033030;28;20499;-72
2021/01/13 12:44:31;;;;;;;10.60;4.17;;;;;;;;;;5030408;28;20499;-72
2021/01/13 12:47:02;;;;;;;13.23;4.77;;;;;;;;;;5031592;28;20998;-72
2021/01/13 12:49:28;;;;;;;11.87;4.63;;;;;;;;;;5031365;28;20453;-72
2021/01/13 12:51:56;;;;;;;9.80;5.00;;;;;;;;;;5031988;28;20464;-72
2021/01/13 12:54:23;;;;;;;16.90;4.80;;;;;;;;;;5018065;28;20686;-72
2021/01/13 12:56:51;;;;;;;7.90;4.40;;;;;;;;;;5024586;28;20483;-72
2021/01/13 12:59:17;;;;;;;8.93;4.43;;;;;;;;;;5031392;28;20579;-72
2021/01/13 13:01:44;;;;;;;11.50;5.23;;;;;;;;;;5032000;28;20472;-72
2021/01/13 13:04:12;;;;;;;4.33;2.77;;;;;;;;;;5031442;28;20855;-73
2021/01/13 13:06:39;;;;;;;3.60;2.40;;;;;;;;;;5031534;28;20452;-72
2021/01/13 13:09:07;;;;;;;3.10;2.00;;;;;;;;;;5031795;28;20936;-72
2021/01/13 13:11:35;;;;;;;3.70;2.23;;;;;;;;;;5032010;28;21038;-70
2021/01/13 13:14:02;;;;;;;3.70;2.40;;;;;;;;;;5032030;28;20498;-69
2021/01/13 13:16:28;;;;;;;2.23;2.10;;;;;;;;;;5031437;28;20464;-69
2021/01/13 13:18:56;;;;;;;2.33;2.13;;;;;;;;;;5031448;28;20514;-69
2021/01/13 13:21:24;;;;;;;3.10;2.13;;;;;;;;;;5032047;28;20457;-70
2021/01/13 13:23:50;;;;;;;2.40;2.10;;;;;;;;;;5031815;28;20453;-69
2021/01/13 13:26:18;;;;;;;2.03;1.93;;;;;;;;;;5031765;28;20451;-69
2021/01/13 13:28:45;;;;;;;2.30;2.10;;;;;;;;;;5031293;28;20471;-69
2021/01/13 13:31:12;;;;;;;2.20;2.10;;;;;;;;;;5031340;28;20501;-69
2021/01/13 13:33:39;;;;;;;3.37;2.23;;;;;;;;;;5031013;28;20449;-69
2021/01/13 13:36:06;;;;;;;3.47;2.50;;;;;;;;;;5031544;28;20817;-70
2021/01/13 13:38:33;;;;;;;3.33;2.20;;;;;;;;;;5030847;28;20896;-70
2021/01/13 13:41:00;;;;;;;3.77;2.30;;;;;;;;;;5030998;28;20460;-69
2021/01/13 13:43:26;;;;;;;3.40;2.57;;;;;;;;;;5030922;28;20453;-69
2021/01/13 13:45:53;;;;;;;2.77;2.50;;;;;;;;;;5032261;28;20457;-69
2021/01/13 13:48:20;;;;;;;4.23;2.70;;;;;;;;;;5029794;28;20518;-69
2021/01/13 13:50:47;;;;;;;4.00;2.63;;;;;;;;;;5041390;28;20463;-69
2021/01/13 13:53:17;;;;;;;2.73;2.53;;;;;;;;;;5031276;28;20452;-69
2021/01/13 13:55:44;;;;;;;3.07;2.63;;;;;;;;;;5011661;28;20531;-67
2021/01/13 13:58:11;;;;;;;3.37;3.07;;;;;;;;;;5012029;28;20524;-70
2021/01/13 14:00:38;;;;;;;3.50;3.20;;;;;;;;;;5032261;28;20448;-69
2021/01/13 14:03:05;;;;;;;3.77;3.17;;;;;;;;;;5035541;28;20451;-69
2021/01/13 14:05:31;;;;;;;4.30;2.83;;;;;;;;;;5035049;28;20842;-69
2021/01/13 14:07:58;;;;;;;5.57;3.10;;;;;;;;;;5034533;28;21000;-69
2021/01/13 14:10:25;;;;;;;5.87;3.20;;;;;;;;;;5036137;28;20824;-71
2021/01/13 14:12:52;;;;;;;5.23;3.50;;;;;;;;;;5038101;28;20455;-70
2021/01/13 14:15:19;;;;;;;7.17;3.50;;;;;;;;;;5034612;28;20510;-70
2021/01/13 14:17:46;;;;;;;6.07;3.70;;;;;;;;;;5032879;28;20496;-70
2021/01/13 14:20:13;;;;;;;5.77;3.53;;;;;;;;;;5034579;28;20484;-70
2021/01/13 14:22:40;;;;;;;8.30;4.27;;;;;;;;;;5034682;28;20456;-68
2021/01/13 14:25:07;;;;;;;5.80;3.30;;;;;;;;;;5035071;28;20866;-68
2021/01/13 14:27:34;;;;;;;6.73;3.50;;;;;;;;;;5034419;28;20464;-69
2021/01/13 14:30:01;;;;;;;10.10;4.80;;;;;;;;;;5027181;28;20449;-69
2021/01/13 14:32:28;;;;;;;8.90;4.47;;;;;;;;;;5033377;28;20453;-70
2021/01/13 14:34:54;;;;;;;6.83;3.97;;;;;;;;;;5033549;28;20460;-69
2021/01/13 14:37:21;;;;;;;8.23;4.23;;;;;;;;;;5034270;28;20483;-69
2021/01/13 14:39:48;;;;;;;13.30;4.53;;;;;;;;;;5033422;28;20477;-68
2021/01/13 14:42:17;;;;;;;13.90;4.70;;;;;;;;;;5029770;28;20445;-68
2021/01/13 14:44:43;;;;;;;9.10;3.90;;;;;;;;;;5034209;28;20473;-67
2021/01/13 14:47:12;;;;;;;10.60;4.60;;;;;;;;;;5034131;28;20517;-67
2021/01/13 14:49:39;;;;;;;13.17;5.40;;;;;;;;;;5034299;28;20463;-67
2021/01/13 14:52:06;;;;;;;12.57;4.83;;;;;;;;;;5032043;28;20877;-67
2021/01/13 14:54:33;;;;;;;11.00;5.80;;;;;;;;;;5032239;28;20452;-67
2021/01/13 14:57:00;;;;;;;13.83;5.83;;;;;;;;;;5032975;28;20480;-69